This is the latest recevied weather packets stored in our database for station/object KG5MMT-12. If no packets are shown the sender has not sent any weather packets the latest 10 day(s).
| Time | Temp. | Humidity | Pressure | Rain* | Wind** | Luminosity | Snow |
|---|---|---|---|---|---|---|---|
| 1788103453 | 24.44° C | 37% | 0 hPa | 0 mm | - | - | - |
| 1788103153 | 24.44° C | 38% | 0 hPa | 0 mm | - | - | - |
| 1788102853 | 23.89° C | 40% | 0 hPa | 0 mm | - | - | - |
| 1788102553 | 23.89° C | 40% | 0 hPa | 0 mm | - | - | - |
| 1788102253 | 23.89° C | 38% | 0 hPa | 0 mm | - | - | - |
| 1788101953 | 23.33° C | 41% | 0 hPa | 0 mm | - | - | - |
| 1788101653 | 23.33° C | 43% | 0 hPa | 0 mm | - | - | - |
| 1788101353 | 22.78° C | 46% | 0 hPa | 0 mm | - | - | - |
| 1788101053 | 22.22° C | 51% | 0 hPa | 0 mm | - | - | - |
| 1788100753 | 21.67° C | 49% | 0 hPa | 0 mm | - | - | - |
| 1788100453 | 21.11° C | 48% | 0 hPa | 0 mm | - | - | - |
| 1788100153 | 20° C | 59% | 0 hPa | 0 mm | - | - | - |
| 1788099853 | 18.89° C | 59% | 0 hPa | 0 mm | - | - | - |
| 1788099553 | 17.78° C | 65% | 0 hPa | 0 mm | - | - | - |
| 1788099253 | 17.22° C | 72% | 0 hPa | 0 mm | - | - | - |
| 1788098953 | 16.11° C | 76% | 0 hPa | 0 mm | - | - | - |
| 1788098653 | 16.11° C | 76% | 0 hPa | 0 mm | - | - | - |
| 1788098353 | 15.56° C | 77% | 0 hPa | 0 mm | - | - | - |
| 1788098053 | 15° C | 79% | 0 hPa | 0 mm | - | - | - |
| 1788097753 | 15° C | 80% | 0 hPa | 0 mm | - | - | - |
| 1788097453 | 15° C | 79% | 0 hPa | 0 mm | - | - | - |
| 1788097153 | 15° C | 81% | 0 hPa | 0 mm | - | - | - |
| 1788096853 | 15° C | 81% | 0 hPa | 0 mm | - | - | - |
| 1788096553 | 15° C | 80% | 0 hPa | 0 mm | - | - | - |
| 1788096253 | 15° C | 79% | 0 hPa | 0 mm | - | - | - |
* Rain latest hour (hover to see other rain measurements)
** Current wind speed in m/s (hover to see current wind gust speed)